createdAt,value
2022-10-17T00:00:13.958Z,995.72
2022-10-17T00:01:14.015Z,995.71
2022-10-17T00:02:13.945Z,995.73
2022-10-17T00:03:13.908Z,995.78
2022-10-17T00:04:13.928Z,995.79
2022-10-17T00:05:13.953Z,995.77
2022-10-17T00:06:13.901Z,995.79
2022-10-17T00:07:13.896Z,995.80
2022-10-17T00:08:14.605Z,995.79
2022-10-17T00:09:13.850Z,995.75
2022-10-17T00:10:13.840Z,995.73
2022-10-17T00:11:13.826Z,995.81
2022-10-17T00:12:13.807Z,995.84
2022-10-17T00:13:13.802Z,995.77
2022-10-17T00:14:13.788Z,995.75
2022-10-17T00:15:13.755Z,995.80
2022-10-17T00:16:13.754Z,995.88
2022-10-17T00:17:13.744Z,995.83
2022-10-17T00:18:13.714Z,995.84
2022-10-17T00:19:13.747Z,995.85
2022-10-17T00:20:13.743Z,995.90
2022-10-17T00:21:13.682Z,995.88
2022-10-17T00:22:13.662Z,995.88
2022-10-17T00:23:13.673Z,995.85
2022-10-17T00:24:13.653Z,995.87
2022-10-17T00:25:13.652Z,995.86
2022-10-17T00:26:13.652Z,995.86
2022-10-17T00:27:13.603Z,995.86
2022-10-17T00:28:13.601Z,995.82
2022-10-17T00:29:13.590Z,995.82
2022-10-17T00:30:13.589Z,995.82
2022-10-17T00:31:13.585Z,995.80
2022-10-17T00:32:13.551Z,995.92
2022-10-17T00:33:13.529Z,995.90
2022-10-17T00:34:13.539Z,995.88
2022-10-17T00:35:13.531Z,995.86
2022-10-17T00:36:13.489Z,995.89
2022-10-17T00:37:13.501Z,995.93
2022-10-17T00:38:13.467Z,995.89
2022-10-17T00:39:13.450Z,995.86
2022-10-17T00:40:13.438Z,995.87
2022-10-17T00:41:13.460Z,995.88
2022-10-17T00:42:13.414Z,995.93
2022-10-17T00:43:13.417Z,995.98
2022-10-17T00:44:13.377Z,995.89
2022-10-17T00:45:13.398Z,995.88
2022-10-17T00:46:13.385Z,995.87
2022-10-17T00:47:13.339Z,995.90
2022-10-17T00:48:13.326Z,995.89
2022-10-17T00:49:13.329Z,995.87
2022-10-17T00:50:13.327Z,995.90
2022-10-17T00:51:13.317Z,995.87
2022-10-17T00:52:13.277Z,995.84
2022-10-17T00:53:13.285Z,995.87
2022-10-17T00:54:13.247Z,995.88
2022-10-17T00:55:13.286Z,995.91
2022-10-17T00:56:13.244Z,995.90
2022-10-17T00:57:13.235Z,995.91
2022-10-17T00:58:13.228Z,995.96
2022-10-17T00:59:13.204Z,995.94
2022-10-17T01:00:13.179Z,995.97
2022-10-17T01:01:13.243Z,995.96
2022-10-17T01:02:13.171Z,995.95
2022-10-17T01:03:13.154Z,995.95
2022-10-17T01:04:13.170Z,995.94
2022-10-17T01:05:13.111Z,995.98
2022-10-17T01:06:13.101Z,995.95
2022-10-17T01:07:13.111Z,995.96
2022-10-17T01:08:13.102Z,995.97
2022-10-17T01:09:13.082Z,995.96
2022-10-17T01:10:13.098Z,995.97
2022-10-17T01:11:13.046Z,995.99
2022-10-17T01:12:13.036Z,995.97
2022-10-17T01:13:13.040Z,996.02
2022-10-17T01:14:12.989Z,996.08
2022-10-17T01:15:12.979Z,996.10
2022-10-17T01:16:12.976Z,996.11
2022-10-17T01:17:13.149Z,996.14
2022-10-17T01:18:12.947Z,996.15
2022-10-17T01:19:12.995Z,996.12
2022-10-17T01:20:12.927Z,996.10
2022-10-17T01:21:12.909Z,996.18
2022-10-17T01:22:12.897Z,996.18
2022-10-17T01:23:12.908Z,996.15
2022-10-17T01:24:12.876Z,996.15
2022-10-17T01:25:12.884Z,996.15
2022-10-17T01:26:12.838Z,996.17
2022-10-17T01:27:13.024Z,996.21
2022-10-17T01:28:12.836Z,996.16
2022-10-17T01:29:12.816Z,996.14
2022-10-17T01:30:12.797Z,996.17
2022-10-17T01:31:12.791Z,996.20
2022-10-17T01:32:12.766Z,996.23
2022-10-17T01:33:12.804Z,996.19
2022-10-17T01:34:12.743Z,996.22
2022-10-17T01:35:12.737Z,996.18
2022-10-17T01:36:12.734Z,996.21
2022-10-17T01:37:12.750Z,996.22
2022-10-17T01:38:12.721Z,996.27
2022-10-17T01:39:12.748Z,996.26
2022-10-17T01:40:12.684Z,996.24
2022-10-17T01:41:12.675Z,996.26
2022-10-17T01:42:12.623Z,996.28
2022-10-17T01:43:12.633Z,996.26
2022-10-17T01:44:12.605Z,996.26
2022-10-17T01:45:12.645Z,996.26
2022-10-17T01:46:12.590Z,996.33
2022-10-17T01:47:12.573Z,996.32
2022-10-17T01:48:12.569Z,996.31
2022-10-17T01:49:12.541Z,996.29
2022-10-17T01:50:12.543Z,996.29
2022-10-17T01:51:12.510Z,996.32
2022-10-17T01:52:12.519Z,996.29
2022-10-17T01:53:12.499Z,996.26
2022-10-17T01:54:12.500Z,996.24
2022-10-17T01:55:12.479Z,996.25
2022-10-17T01:56:12.458Z,996.23
2022-10-17T01:57:12.488Z,996.23
2022-10-17T01:58:12.426Z,996.21
2022-10-17T01:59:12.440Z,996.23
2022-10-17T02:00:12.401Z,996.20
2022-10-17T02:01:12.464Z,996.23
2022-10-17T02:02:12.423Z,996.22
2022-10-17T02:03:12.373Z,996.22
2022-10-17T02:04:12.351Z,996.21
2022-10-17T02:05:12.338Z,996.20
